< < Back
Terminal Aerodrome Forecast


Current Version              Previous Versions:   1  2  3  4  5  6  7  8  9  

Terminal Aerodrome Forecast

223
FTUS44 KMOB 091127
TAFPNS
TAF
KPNS 091127Z 0912/1012 27007KT P6SM SKC
     FM091500 29020G29KT P6SM SKC
     FM100000 30012KT P6SM FEW070=

Latest METAR

459
SAUS70 KWBC 091300 RRI
MTRPNS
METAR KPNS 091253Z 28004KT 10SM CLR 04/M03 A3007 RMK AO2 SLP184
T00391033


USA.gov is the U.S. government's official web portal to all federal, state and local government web resources and services.